createdAt,value
2023-04-16T00:00:57.766Z,39.40
2023-04-16T00:03:25.844Z,40.63
2023-04-16T00:05:55.770Z,40.60
2023-04-16T00:08:25.513Z,40.50
2023-04-16T00:10:55.625Z,40.90
2023-04-16T00:13:23.757Z,40.42
2023-04-16T00:15:51.737Z,40.70
2023-04-16T00:18:21.142Z,40.63
2023-04-16T00:20:49.431Z,41.20
2023-04-16T00:23:17.382Z,41.08
2023-04-16T00:25:45.274Z,37.93
2023-04-16T00:28:14.609Z,37.63
2023-04-16T00:30:42.501Z,38.10
2023-04-16T00:33:10.441Z,38.70
2023-04-16T00:35:38.368Z,38.70
2023-04-16T00:38:06.312Z,38.25
2023-04-16T00:40:34.199Z,38.43
2023-04-16T00:43:02.090Z,39.22
2023-04-16T00:45:31.631Z,36.77
2023-04-16T00:48:00.671Z,36.70
2023-04-16T00:50:29.116Z,38.30
2023-04-16T00:52:58.153Z,39.77
2023-04-16T00:55:26.308Z,39.50
2023-04-16T00:57:54.159Z,38.30
2023-04-16T01:00:22.462Z,38.73
2023-04-16T01:02:51.932Z,37.70
2023-04-16T01:05:20.471Z,38.45
2023-04-16T01:07:48.405Z,38.53
2023-04-16T01:10:16.322Z,36.60
2023-04-16T01:12:44.204Z,41.03
2023-04-16T01:15:12.763Z,39.17
2023-04-16T01:17:40.701Z,39.88
2023-04-16T01:20:10.773Z,39.40
2023-04-16T01:22:40.184Z,37.70
2023-04-16T01:25:08.408Z,39.47
2023-04-16T01:27:37.623Z,38.90
2023-04-16T01:30:07.094Z,37.60
2023-04-16T01:32:35.088Z,37.57
2023-04-16T01:35:03.290Z,36.97
2023-04-16T01:37:32.069Z,37.23
2023-04-16T01:40:01.440Z,38.30
2023-04-16T01:42:29.314Z,41.72
2023-04-16T01:44:57.220Z,36.33
2023-04-16T01:47:25.174Z,38.70
2023-04-16T01:49:53.200Z,37.72
2023-04-16T01:52:21.146Z,39.05
2023-04-16T01:54:49.093Z,39.80
2023-04-16T01:57:18.457Z,36.92
2023-04-16T01:59:46.371Z,36.10
2023-04-16T02:02:16.675Z,37.57
2023-04-16T02:04:46.122Z,37.07
2023-04-16T02:07:14.266Z,36.63
2023-04-16T02:09:42.569Z,35.67
2023-04-16T02:12:11.690Z,38.70
2023-04-16T02:14:41.253Z,38.30
2023-04-16T02:17:09.202Z,39.67
2023-04-16T02:19:37.137Z,38.15
2023-04-16T02:22:05.455Z,41.35
2023-04-16T02:24:33.306Z,38.95
2023-04-16T02:27:01.411Z,37.30
2023-04-16T02:29:29.303Z,37.83
2023-04-16T02:31:59.578Z,41.43
2023-04-16T02:34:27.603Z,39.77
2023-04-16T02:36:55.582Z,39.60
2023-04-16T02:39:23.454Z,38.03
2023-04-16T02:41:51.402Z,37.20
2023-04-16T02:44:19.498Z,39.90
2023-04-16T02:46:47.478Z,40.55
2023-04-16T02:49:16.869Z,40.80
2023-04-16T02:51:44.807Z,40.35
2023-04-16T02:54:12.698Z,40.03
2023-04-16T02:56:40.627Z,39.90
2023-04-16T02:59:08.777Z,40.90
2023-04-16T03:01:36.916Z,39.80
2023-04-16T03:04:04.933Z,39.78
2023-04-16T03:06:34.356Z,38.38
2023-04-16T03:09:02.344Z,40.40
2023-04-16T03:11:30.381Z,40.90
2023-04-16T03:13:58.327Z,41.20
2023-04-16T03:16:26.294Z,41.38
2023-04-16T03:18:54.186Z,41.08
2023-04-16T03:21:22.108Z,40.70
2023-04-16T03:23:53.245Z,38.47
2023-04-16T03:26:21.677Z,39.20
2023-04-16T03:28:49.632Z,41.23
2023-04-16T03:31:17.533Z,39.75
2023-04-16T03:33:45.788Z,39.85
2023-04-16T03:36:13.683Z,38.63
2023-04-16T03:38:41.866Z,40.67
2023-04-16T03:41:11.327Z,41.17
2023-04-16T03:43:39.287Z,41.37
2023-04-16T03:46:07.313Z,39.30
2023-04-16T03:48:35.284Z,41.22
2023-04-16T03:51:03.162Z,38.53
2023-04-16T03:53:31.173Z,41.75
2023-04-16T03:55:59.229Z,39.30
2023-04-16T03:58:28.586Z,40.67
2023-04-16T04:00:56.455Z,41.00
2023-04-16T04:03:26.138Z,40.92
2023-04-16T04:05:54.292Z,42.30
2023-04-16T04:08:22.248Z,42.15
2023-04-16T04:10:51.152Z,39.90
2023-04-16T04:13:19.057Z,41.30
2023-04-16T04:15:48.403Z,41.00
2023-04-16T04:18:16.336Z,41.90
2023-04-16T04:20:45.414Z,40.53
2023-04-16T04:23:13.326Z,41.90
2023-04-16T04:25:41.234Z,41.90
2023-04-16T04:28:09.175Z,41.85
2023-04-16T04:30:37.128Z,41.60
2023-04-16T04:33:06.588Z,40.83
2023-04-16T04:35:34.697Z,42.20
2023-04-16T04:38:02.880Z,42.50
2023-04-16T04:40:30.875Z,41.70
2023-04-16T04:42:58.918Z,42.08
2023-04-16T04:45:27.062Z,42.00
2023-04-16T04:47:55.676Z,41.80
2023-04-16T04:50:25.052Z,40.40
2023-04-16T04:52:52.977Z,42.22
2023-04-16T04:55:20.979Z,39.70
2023-04-16T04:57:50.414Z,40.42
2023-04-16T05:00:18.367Z,42.90
2023-04-16T05:02:47.351Z,43.30
2023-04-16T05:05:15.446Z,42.40
2023-04-16T05:07:45.367Z,41.90
2023-04-16T05:10:13.281Z,42.78
2023-04-16T05:12:41.352Z,43.80
2023-04-16T05:15:10.444Z,42.30
2023-04-16T05:17:38.379Z,41.60
2023-04-16T05:20:07.354Z,42.30
2023-04-16T05:22:35.303Z,43.10
2023-04-16T05:25:04.998Z,41.90
2023-04-16T05:27:32.920Z,42.50
2023-04-16T05:30:00.850Z,41.90
2023-04-16T05:32:28.728Z,44.83
2023-04-16T05:34:56.709Z,42.80
2023-04-16T05:37:24.736Z,41.85
2023-04-16T05:39:52.673Z,42.00
2023-04-16T05:42:21.978Z,42.92
2023-04-16T05:44:49.936Z,42.08
2023-04-16T05:47:17.936Z,41.60
2023-04-16T05:49:45.791Z,40.20
2023-04-16T05:52:13.808Z,42.42
2023-04-16T05:54:41.742Z,42.70
2023-04-16T05:57:09.607Z,42.40
2023-04-16T05:59:38.917Z,41.08
2023-04-16T06:02:07.742Z,43.25
2023-04-16T06:04:37.220Z,44.00
2023-04-16T06:07:05.466Z,43.30
2023-04-16T06:09:33.393Z,42.60
2023-04-16T06:12:01.449Z,44.73
2023-04-16T06:14:29.404Z,43.00
2023-04-16T06:16:58.736Z,43.00
2023-04-16T06:19:26.638Z,42.95
2023-04-16T06:21:55.078Z,43.67
2023-04-16T06:24:23.013Z,43.40
2023-04-16T06:26:50.903Z,43.75
2023-04-16T06:29:19.097Z,41.58
2023-04-16T06:31:47.891Z,43.20
2023-04-16T06:34:17.509Z,42.30
2023-04-16T06:36:45.717Z,43.30
2023-04-16T06:39:13.740Z,43.08
2023-04-16T06:41:41.758Z,43.80
2023-04-16T06:44:09.767Z,43.60
2023-04-16T06:46:37.773Z,42.83
2023-04-16T06:49:05.891Z,44.17
2023-04-16T06:51:35.725Z,43.22
2023-04-16T06:54:03.671Z,43.20
2023-04-16T06:56:32.200Z,44.08
2023-04-16T06:59:00.950Z,44.00
2023-04-16T07:01:31.109Z,43.30
2023-04-16T07:03:59.453Z,43.88
2023-04-16T07:06:28.119Z,43.90
2023-04-16T07:08:57.533Z,43.70
2023-04-16T07:11:27.292Z,43.70
2023-04-16T07:13:55.765Z,42.90
2023-04-16T07:16:24.044Z,43.67
2023-04-16T07:18:52.222Z,43.15
2023-04-16T07:21:20.991Z,43.80
2023-04-16T07:23:48.993Z,43.55
2023-04-16T07:26:18.416Z,44.17
2023-04-16T07:28:46.397Z,44.42
2023-04-16T07:31:14.374Z,43.88
2023-04-16T07:33:42.557Z,43.00
2023-04-16T07:36:10.983Z,45.20
2023-04-16T07:38:39.006Z,45.45
2023-04-16T07:41:07.123Z,44.95
2023-04-16T07:43:36.748Z,43.97
2023-04-16T07:46:04.797Z,45.00
2023-04-16T07:48:32.864Z,45.78
2023-04-16T07:51:01.047Z,45.30
2023-04-16T07:53:29.021Z,45.40
2023-04-16T07:55:57.004Z,44.80
2023-04-16T07:58:24.914Z,45.42
2023-04-16T08:00:54.242Z,46.10
2023-04-16T08:03:22.389Z,43.97
2023-04-16T08:05:50.677Z,46.15
2023-04-16T08:08:18.646Z,44.45
2023-04-16T08:10:46.729Z,45.20
2023-04-16T08:13:14.642Z,45.40
2023-04-16T08:15:42.554Z,45.80
2023-04-16T08:18:15.517Z,46.00
2023-04-16T08:20:43.634Z,45.42
2023-04-16T08:23:11.528Z,46.37
2023-04-16T08:25:39.431Z,46.20
2023-04-16T08:28:07.322Z,46.10
2023-04-16T08:30:35.486Z,44.90
2023-04-16T08:33:03.589Z,44.45
2023-04-16T08:35:32.958Z,46.05
2023-04-16T08:38:02.381Z,44.58
2023-04-16T08:40:31.736Z,45.97
2023-04-16T08:43:01.353Z,46.30
2023-04-16T08:45:29.301Z,45.30
2023-04-16T08:47:57.700Z,44.65
2023-04-16T08:50:28.225Z,44.43
2023-04-16T08:53:01.272Z,46.80
2023-04-16T08:55:37.372Z,46.50
2023-04-16T08:58:09.652Z,46.40
2023-04-16T09:00:40.947Z,46.70
2023-04-16T09:03:10.429Z,46.10
2023-04-16T09:05:39.531Z,46.78
2023-04-16T09:08:09.295Z,46.40
2023-04-16T09:10:37.271Z,48.40
2023-04-16T09:13:05.263Z,47.47
2023-04-16T09:15:35.242Z,47.80
2023-04-16T09:18:03.336Z,48.15
2023-04-16T09:20:31.377Z,46.70
2023-04-16T09:22:59.317Z,48.17
2023-04-16T09:25:29.266Z,47.50
2023-04-16T09:27:57.153Z,48.10
2023-04-16T09:30:27.128Z,48.30
2023-04-16T09:33:15.608Z,49.90
2023-04-16T09:35:47.989Z,48.80
2023-04-16T09:38:16.373Z,47.70
2023-04-16T09:40:47.414Z,48.40
2023-04-16T09:43:17.337Z,49.00
2023-04-16T09:45:52.058Z,48.60
2023-04-16T09:48:30.287Z,48.58
2023-04-16T09:50:58.554Z,48.50
2023-04-16T09:53:27.122Z,47.55
2023-04-16T09:55:57.707Z,48.80
2023-04-16T09:58:25.780Z,48.72
2023-04-16T10:00:58.288Z,49.30
2023-04-16T10:03:32.979Z,47.60
2023-04-16T10:06:02.979Z,47.42
2023-04-16T10:17:00.562Z,48.70
2023-04-16T10:19:28.760Z,49.20
2023-04-16T10:21:56.772Z,49.90
2023-04-16T10:24:25.612Z,49.00
2023-04-16T10:26:54.038Z,48.58
2023-04-16T10:29:22.700Z,48.38
2023-04-16T10:31:52.045Z,48.10
2023-04-16T10:34:21.857Z,49.40
2023-04-16T10:36:51.156Z,48.60
2023-04-16T10:39:21.096Z,49.58
2023-04-16T10:41:49.216Z,49.53
2023-04-16T10:44:19.303Z,48.90
2023-04-16T10:46:49.689Z,48.40
2023-04-16T10:49:19.890Z,49.17
2023-04-16T10:51:56.251Z,49.80
2023-04-16T10:54:28.943Z,49.45
2023-04-16T10:56:58.865Z,49.75
2023-04-16T10:59:31.855Z,49.47
2023-04-16T11:02:01.775Z,51.30
2023-04-16T11:04:39.621Z,49.80
2023-04-16T11:07:16.991Z,49.65
2023-04-16T11:09:56.544Z,49.30
2023-04-16T11:12:27.456Z,52.10
2023-04-16T11:14:59.750Z,49.80
2023-04-16T11:17:30.477Z,49.80
2023-04-16T11:19:58.381Z,49.63
2023-04-16T11:22:28.844Z,49.90
2023-04-16T11:24:57.593Z,47.92
2023-04-16T11:27:26.329Z,49.78
2023-04-16T11:30:04.120Z,50.00
2023-04-16T11:32:33.579Z,51.13
2023-04-16T11:35:04.414Z,49.50
2023-04-16T11:37:37.637Z,48.90
2023-04-16T11:40:08.109Z,49.17
2023-04-16T11:42:37.821Z,48.50
2023-04-16T11:45:06.474Z,48.83
2023-04-16T11:47:43.683Z,48.88
2023-04-16T11:50:22.770Z,48.30
2023-04-16T12:22:27.171Z,49.00
2023-04-16T12:24:57.967Z,49.65
2023-04-16T12:27:28.541Z,48.90
2023-04-16T12:30:07.186Z,49.20
2023-04-16T12:32:35.149Z,50.10
2023-04-16T12:35:02.995Z,49.13
2023-04-16T12:37:32.525Z,48.50
2023-04-16T12:40:00.524Z,49.20
2023-04-16T12:42:33.410Z,51.08
2023-04-16T12:45:01.291Z,49.10
2023-04-16T12:47:29.256Z,49.50
2023-04-16T12:49:57.700Z,49.40
2023-04-16T12:52:25.749Z,49.97
2023-04-16T12:54:55.214Z,49.30
2023-04-16T12:57:28.365Z,48.60
2023-04-16T12:59:57.213Z,47.95
2023-04-16T13:02:26.032Z,51.20
2023-04-16T13:04:54.761Z,49.53
2023-04-16T13:07:24.054Z,49.42
2023-04-16T13:09:51.990Z,49.30
2023-04-16T13:12:21.260Z,52.10
2023-04-16T13:14:49.092Z,49.00
2023-04-16T13:17:16.919Z,49.78
2023-04-16T13:19:45.631Z,49.10
2023-04-16T13:22:14.020Z,50.13
2023-04-16T13:24:41.890Z,49.60
2023-04-16T13:27:11.363Z,49.53
2023-04-16T13:29:40.723Z,49.33
2023-04-16T13:32:08.612Z,50.70
2023-04-16T13:34:36.496Z,49.50
2023-04-16T13:37:04.522Z,49.50
2023-04-16T13:39:32.582Z,48.60
2023-04-16T13:42:00.654Z,48.70
2023-04-16T13:44:28.640Z,48.90
2023-04-16T13:46:58.213Z,48.50
2023-04-16T13:49:26.255Z,49.00
2023-04-16T13:51:54.162Z,50.80
2023-04-16T13:54:21.995Z,50.00
2023-04-16T13:56:51.112Z,49.63
2023-04-16T13:59:20.092Z,49.20
2023-04-16T14:01:48.082Z,49.78
2023-04-16T14:04:17.540Z,49.92
2023-04-16T14:06:45.432Z,49.63
2023-04-16T14:09:13.406Z,49.58
2023-04-16T14:11:41.436Z,49.50
2023-04-16T14:14:09.342Z,47.88
2023-04-16T14:16:37.249Z,48.80
2023-04-16T14:19:05.201Z,48.80
2023-04-16T14:21:34.481Z,49.30
2023-04-16T14:24:02.278Z,49.30
2023-04-16T14:26:33.340Z,51.00
2023-04-16T14:31:29.155Z,49.70
2023-04-16T14:33:57.056Z,49.50
2023-04-16T14:36:24.937Z,50.00
2023-04-16T14:38:54.245Z,48.85
2023-04-16T14:41:22.170Z,49.80
2023-04-16T14:43:50.041Z,49.10
2023-04-16T14:46:18.093Z,49.60
2023-04-16T14:48:46.385Z,50.43
2023-04-16T14:51:14.317Z,50.20
2023-04-16T14:53:42.245Z,50.22
2023-04-16T14:56:12.842Z,50.10
2023-04-16T14:58:42.789Z,50.37
2023-04-16T15:01:10.833Z,49.38
2023-04-16T15:03:38.936Z,49.90
2023-04-16T15:06:07.084Z,50.22
2023-04-16T15:08:35.730Z,49.90
2023-04-16T15:11:03.685Z,50.00
2023-04-16T15:13:34.543Z,49.70
2023-04-16T15:16:02.573Z,49.30
2023-04-16T15:18:31.004Z,49.20
2023-04-16T15:20:58.974Z,48.90
2023-04-16T15:23:26.898Z,49.20
2023-04-16T15:25:57.946Z,48.97
2023-04-16T15:28:25.982Z,48.90
2023-04-16T15:30:55.693Z,48.70
2023-04-16T15:33:26.442Z,49.00
2023-04-16T15:35:54.602Z,50.33
2023-04-16T15:38:22.875Z,49.13
2023-04-16T15:40:53.929Z,48.78
2023-04-16T15:43:22.510Z,49.17
2023-04-16T15:45:51.121Z,48.63
2023-04-16T15:48:21.624Z,49.80
2023-04-16T15:50:49.813Z,49.63
2023-04-16T15:53:18.085Z,49.00
2023-04-16T15:55:46.464Z,49.30
2023-04-16T15:58:14.376Z,48.85
2023-04-16T16:00:43.038Z,48.93
2023-04-16T16:03:11.102Z,48.83
2023-04-16T16:05:41.019Z,49.30
2023-04-16T16:08:09.964Z,49.40
2023-04-16T16:10:37.839Z,49.22
2023-04-16T16:13:07.886Z,48.60
2023-04-16T16:15:35.971Z,62.85
2023-04-16T16:18:03.922Z,64.57
2023-04-16T16:20:31.873Z,72.22
2023-04-16T16:23:01.277Z,66.18
2023-04-16T16:25:30.257Z,68.43
2023-04-16T16:27:58.789Z,48.85
2023-04-16T16:30:27.151Z,48.30
2023-04-16T16:32:55.397Z,71.00
2023-04-16T16:45:59.604Z,49.65
2023-04-16T16:48:27.522Z,47.80
2023-04-16T16:50:55.576Z,49.38
2023-04-16T16:53:23.523Z,47.80
2023-04-16T16:55:51.484Z,59.97
2023-04-16T16:58:19.360Z,49.03
2023-04-16T17:00:47.253Z,49.13
2023-04-16T17:03:17.096Z,49.15
2023-04-16T17:05:45.237Z,49.27
2023-04-16T17:08:13.830Z,49.78
2023-04-16T17:10:43.461Z,48.13
2023-04-16T17:13:11.389Z,48.20
2023-04-16T17:15:39.712Z,51.60
2023-04-16T17:18:07.849Z,53.05
2023-04-16T17:20:37.886Z,53.03
2023-04-16T17:23:06.065Z,49.55
2023-04-16T17:25:34.161Z,49.80
2023-04-16T17:28:02.158Z,48.90
2023-04-16T17:30:31.873Z,48.80
2023-04-16T17:35:35.270Z,47.33
2023-04-16T17:38:04.477Z,56.70
2023-04-16T17:40:32.362Z,48.85
2023-04-16T17:43:00.236Z,48.03
2023-04-16T17:45:28.143Z,54.73
2023-04-16T17:47:56.037Z,57.72
2023-04-16T17:50:24.195Z,48.80
2023-04-16T17:52:52.060Z,48.70
2023-04-16T17:55:21.462Z,59.67
2023-04-16T17:57:49.759Z,46.80
2023-04-16T18:00:18.518Z,48.10
2023-04-16T18:02:46.503Z,56.58
2023-04-16T18:05:14.590Z,61.97
2023-04-16T18:07:43.663Z,72.90
2023-04-16T18:10:11.808Z,48.20
2023-04-16T18:12:41.179Z,55.90
2023-04-16T18:15:10.300Z,48.10
2023-04-16T18:17:38.270Z,71.50
2023-04-16T18:20:08.919Z,44.55
2023-04-16T18:22:36.850Z,49.63
2023-04-16T18:25:05.260Z,50.88
2023-04-16T18:27:33.324Z,49.17
2023-04-16T18:30:04.382Z,50.42
2023-04-16T18:32:33.286Z,51.77
2023-04-16T18:35:01.793Z,48.27
2023-04-16T18:37:29.706Z,48.63
2023-04-16T18:39:58.203Z,48.20
2023-04-16T18:42:27.941Z,49.33
2023-04-16T18:44:56.169Z,47.70
2023-04-16T18:47:25.938Z,55.10
2023-04-16T18:49:53.856Z,61.00
2023-04-16T18:52:21.792Z,58.45
2023-04-16T18:54:49.739Z,48.43
2023-04-16T18:57:17.590Z,49.10
2023-04-16T18:59:45.505Z,48.60
2023-04-16T19:02:13.632Z,50.70
2023-04-16T19:04:43.161Z,61.13
2023-04-16T19:07:11.333Z,45.03
2023-04-16T19:09:39.267Z,46.10
2023-04-16T19:12:07.632Z,47.50
2023-04-16T19:14:35.537Z,70.55
2023-04-16T19:17:03.434Z,47.43
2023-04-16T19:19:31.526Z,46.63
2023-04-16T19:22:00.783Z,73.45
2023-04-16T19:24:28.639Z,48.75
2023-04-16T19:26:57.166Z,54.35
2023-04-16T19:29:25.174Z,44.03
2023-04-16T19:31:53.103Z,46.78
2023-04-16T19:34:20.976Z,50.75
2023-04-16T19:36:48.878Z,46.50
2023-04-16T19:39:18.133Z,50.10
2023-04-16T19:41:45.983Z,46.17
2023-04-16T19:44:13.811Z,46.17
2023-04-16T19:46:41.675Z,47.10
2023-04-16T19:49:09.856Z,49.00
2023-04-16T19:51:38.029Z,46.50
2023-04-16T19:54:06.070Z,48.60
2023-04-16T19:56:35.765Z,48.33
2023-04-16T19:59:03.651Z,54.28
2023-04-16T20:01:31.748Z,46.15
2023-04-16T20:03:59.689Z,63.13
2023-04-16T20:06:27.780Z,50.90
2023-04-16T20:08:56.588Z,46.40
2023-04-16T20:11:24.480Z,47.35
2023-04-16T20:13:54.289Z,47.50
2023-04-16T20:16:23.798Z,47.55
2023-04-16T20:18:54.253Z,48.45
2023-04-16T20:21:22.370Z,47.42
2023-04-16T20:23:50.256Z,46.35
2023-04-16T20:26:18.504Z,53.83
2023-04-16T20:28:46.693Z,46.00
2023-04-16T20:31:16.205Z,45.50
2023-04-16T20:33:44.040Z,47.10
2023-04-16T20:36:11.942Z,48.50
2023-04-16T20:38:42.246Z,53.45
2023-04-16T20:41:12.294Z,47.72
2023-04-16T20:43:42.062Z,47.42
2023-04-16T20:46:10.651Z,79.45
2023-04-16T20:48:40.035Z,49.33
2023-04-16T20:51:09.392Z,49.63
2023-04-16T20:53:38.040Z,50.97
2023-04-16T20:56:06.607Z,49.95
2023-04-16T20:58:34.512Z,46.50
2023-04-16T21:01:02.525Z,50.20
2023-04-16T21:03:30.560Z,46.03
2023-04-16T21:06:01.648Z,48.50
2023-04-16T21:08:29.570Z,47.87
2023-04-16T21:10:57.456Z,50.63
2023-04-16T21:13:25.510Z,48.88
2023-04-16T21:15:53.944Z,46.80
2023-04-16T21:18:21.918Z,46.42
2023-04-16T21:20:49.828Z,46.92
2023-04-16T21:23:19.107Z,47.97
2023-04-16T21:25:46.973Z,44.80
2023-04-16T21:28:14.808Z,45.30
2023-04-16T21:30:43.201Z,46.97
2023-04-16T21:33:12.736Z,45.53
2023-04-16T21:35:40.705Z,45.30
2023-04-16T21:38:08.622Z,46.70
2023-04-16T21:40:37.930Z,45.85
2023-04-16T21:43:06.391Z,49.45
2023-04-16T21:45:34.272Z,47.70
2023-04-16T21:48:02.271Z,48.10
2023-04-16T21:50:30.215Z,46.90
2023-04-16T21:52:58.124Z,49.60
2023-04-16T21:55:26.069Z,60.15
2023-04-16T21:57:55.331Z,49.88
2023-04-16T22:00:23.230Z,47.60
2023-04-16T22:02:51.520Z,48.03
2023-04-16T22:05:19.963Z,48.17
2023-04-16T22:07:47.884Z,47.70
2023-04-16T22:10:16.059Z,48.83
2023-04-16T22:12:44.740Z,48.45
2023-04-16T22:15:15.207Z,43.53
2023-04-16T22:17:43.121Z,47.15
2023-04-16T22:20:12.718Z,50.45
2023-04-16T22:22:40.918Z,45.07
2023-04-16T22:25:09.907Z,46.58
2023-04-16T22:27:38.028Z,44.53
2023-04-16T22:30:07.180Z,45.85
2023-04-16T22:32:36.543Z,47.20
2023-04-16T22:35:04.798Z,45.42
2023-04-16T22:37:33.437Z,45.70
2023-04-16T22:40:01.554Z,44.65
2023-04-16T22:42:29.484Z,48.07
2023-04-16T22:44:57.572Z,46.47
2023-04-16T22:47:25.640Z,44.17
2023-04-16T22:49:55.380Z,44.08
2023-04-16T22:52:23.327Z,44.58
2023-04-16T22:54:51.270Z,46.88
2023-04-16T22:57:21.106Z,43.00
2023-04-16T22:59:49.101Z,46.75
2023-04-16T23:02:17.476Z,45.92
2023-04-16T23:04:45.565Z,45.38
2023-04-16T23:07:15.610Z,46.70
2023-04-16T23:09:43.559Z,46.83
2023-04-16T23:17:28.218Z,46.15
2023-04-16T23:19:56.253Z,49.43
2023-04-16T23:22:25.562Z,44.47
2023-04-16T23:24:53.682Z,46.40
2023-04-16T23:27:21.564Z,44.30
2023-04-16T23:29:49.564Z,45.30
2023-04-16T23:32:17.588Z,48.53
2023-04-16T23:34:45.610Z,44.87
2023-04-16T23:37:13.678Z,43.47
2023-04-16T23:39:43.058Z,44.85
2023-04-16T23:42:11.143Z,46.88
2023-04-16T23:44:39.151Z,45.90
2023-04-16T23:47:07.089Z,45.35
2023-04-16T23:49:34.992Z,44.10
2023-04-16T23:52:02.899Z,46.07
2023-04-16T23:54:30.787Z,46.20
2023-04-16T23:57:00.100Z,45.77
2023-04-16T23:59:28.102Z,42.65
